Portada
METAR-TAF:

METAR-TAF

Aeroports :

Tbilisi, Geòrgia

latitud: 41-40-09N, longitud: 044-57-17E, altitud: 495 m

Observació

L'informe es va fer fa 52 minuts, a les 23:00 UTC
Vent 6 kt del Oest/Nord-Oest
Temperatura 23°C
Humitat 47%
Pressió 1010 hPa
Visibilitat 10 km o més
sense núvols per sota de 1500 mi sense presència de cumulonimbus.

METAR: UGTB 082300Z 29006KT CAVOK 23/11 Q1010 NOSIG

Hora: 03:52 (23:52 UTC)

Pronòstic

L'informe es va fer fa 52 minuts, a les 23:00 UTC
Pronòstic vàlid del 09 a les 00 UTC al 09 a les 24 UTC
Vent 2 kt amb direcció variable
Visibilitat 10 km o més
sense núvols per sota de 1500 mi sense presència de cumulonimbus.
Temporalment
l' 09 a les 08 UTC al 09 a les 17 UTC
Vent 10 kt del Sud/Sud-Est

TAF: UGTB 082300Z 0900/0924 VRB02KT CAVOK TX35/0912Z TN21/0902Z TEMPO 0908/0917 15010KT

Observacions i pronòstics meteorològics de més de 4000 aeroports (METAR i TAF).

Les estacions disponibles són els punts grocs i vermells al mapa.

Posi el ratolí al punt desitjat per veure el nom de l'estació.

Feu clic per veure les observacions i els pronòstics meteorològics.

Per canviar el mapa: feu clic els botons verds amb una creu de color negre per apropar; al botó verd amb un guió per allunyar la imatge; o en les fletxes verdes per a mapes adjacents.


METAR-TAF: